createdAt,value
2017-06-14T00:01:00.580Z,77.10
2017-06-14T00:03:28.261Z,76.40
2017-06-14T00:05:55.806Z,76.90
2017-06-14T00:08:23.400Z,76.90
2017-06-14T00:10:50.962Z,76.90
2017-06-14T00:13:18.581Z,77.00
2017-06-14T00:15:46.170Z,77.30
2017-06-14T00:18:13.720Z,77.90
2017-06-14T00:20:41.309Z,77.50
2017-06-14T00:23:08.886Z,77.80
2017-06-14T00:25:36.447Z,78.40
2017-06-14T00:28:04.786Z,79.60
2017-06-14T00:30:32.421Z,79.50
2017-06-14T00:33:00.022Z,79.90
2017-06-14T00:35:27.594Z,80.30
2017-06-14T00:37:55.279Z,80.40
2017-06-14T00:40:23.612Z,80.80
2017-06-14T00:42:51.187Z,80.80
2017-06-14T00:45:18.784Z,80.20
2017-06-14T00:47:46.350Z,81.40
2017-06-14T00:50:13.939Z,80.60
2017-06-14T00:52:41.528Z,80.80
2017-06-14T00:55:09.102Z,81.10
2017-06-14T00:57:36.692Z,81.50
2017-06-14T01:00:05.034Z,82.40
2017-06-14T01:02:32.606Z,82.20
2017-06-14T01:05:00.203Z,81.80
2017-06-14T01:07:27.770Z,81.60
2017-06-14T01:09:55.334Z,81.80
2017-06-14T01:12:22.989Z,81.40
2017-06-14T01:14:50.557Z,81.30
2017-06-14T01:17:18.122Z,80.50
2017-06-14T01:19:45.697Z,80.40
2017-06-14T01:22:13.286Z,80.90
2017-06-14T01:24:40.870Z,80.60
2017-06-14T01:27:08.458Z,80.10
2017-06-14T01:29:36.043Z,80.40
2017-06-14T01:32:03.609Z,81.80
2017-06-14T01:34:31.281Z,81.10
2017-06-14T01:36:58.867Z,81.10
2017-06-14T01:39:26.430Z,81.90
2017-06-14T01:41:53.998Z,82.00
2017-06-14T01:44:22.421Z,82.30
2017-06-14T01:46:49.983Z,82.20
2017-06-14T01:49:17.572Z,81.60
2017-06-14T01:51:45.137Z,82.70
2017-06-14T01:54:12.715Z,82.60
2017-06-14T01:56:40.294Z,82.10
2017-06-14T01:59:08.641Z,81.90
2017-06-14T02:01:36.240Z,81.90
2017-06-14T02:04:04.586Z,81.20
2017-06-14T02:06:32.159Z,81.00
2017-06-14T02:09:00.584Z,80.90
2017-06-14T02:11:28.181Z,80.90
2017-06-14T02:13:55.770Z,81.40
2017-06-14T02:16:24.186Z,81.00
2017-06-14T02:18:51.776Z,81.00
2017-06-14T02:21:19.349Z,81.10
2017-06-14T02:23:46.905Z,81.50
2017-06-14T02:26:14.519Z,80.90
2017-06-14T02:28:42.099Z,81.40
2017-06-14T02:31:09.686Z,81.70
2017-06-14T02:33:37.283Z,82.50
2017-06-14T02:36:04.926Z,82.80
2017-06-14T02:38:32.503Z,82.60
2017-06-14T02:41:00.836Z,82.00
2017-06-14T02:43:28.398Z,81.90
2017-06-14T02:45:55.999Z,81.70
2017-06-14T02:48:24.425Z,82.20
2017-06-14T02:50:51.982Z,82.10
2017-06-14T02:53:19.573Z,82.10
2017-06-14T02:55:47.143Z,81.90
2017-06-14T02:58:14.725Z,81.60
2017-06-14T03:00:43.093Z,81.90
2017-06-14T03:03:10.682Z,81.90
2017-06-14T03:05:38.314Z,81.70
2017-06-14T03:08:05.929Z,82.40
2017-06-14T03:10:33.526Z,82.50
2017-06-14T03:13:01.117Z,83.40
2017-06-14T03:15:29.448Z,83.60
2017-06-14T03:17:57.056Z,82.70
2017-06-14T03:20:31.041Z,82.70
2017-06-14T03:22:58.627Z,82.60
2017-06-14T03:25:26.182Z,82.50
2017-06-14T03:27:54.536Z,82.30
2017-06-14T03:30:22.101Z,82.20
2017-06-14T03:32:49.691Z,82.50
2017-06-14T03:35:18.018Z,84.00
2017-06-14T03:37:45.657Z,83.70
2017-06-14T03:40:13.262Z,84.50
2017-06-14T03:42:40.826Z,84.40
2017-06-14T03:45:08.394Z,84.20
2017-06-14T03:47:35.969Z,83.40
2017-06-14T03:50:04.298Z,82.90
2017-06-14T03:52:31.858Z,82.70
2017-06-14T03:54:59.445Z,81.80
2017-06-14T03:57:27.010Z,81.90
2017-06-14T03:59:54.614Z,82.50
2017-06-14T04:02:22.186Z,82.10
2017-06-14T04:04:49.766Z,81.70
2017-06-14T04:07:17.350Z,81.70
2017-06-14T04:09:44.916Z,81.70
2017-06-14T04:12:12.574Z,81.20
2017-06-14T04:14:40.166Z,81.40
2017-06-14T04:17:08.485Z,75.40
2017-06-14T04:19:36.057Z,75.30
2017-06-14T04:22:03.650Z,70.40
2017-06-14T04:24:31.226Z,65.90
2017-06-14T04:26:59.554Z,59.20
2017-06-14T04:29:27.143Z,59.00
2017-06-14T04:31:54.717Z,57.20
2017-06-14T04:34:22.284Z,56.30
2017-06-14T04:36:49.882Z,54.60
2017-06-14T04:39:17.439Z,53.00
2017-06-14T04:41:45.031Z,51.00
2017-06-14T04:44:12.625Z,47.60
2017-06-14T04:46:40.946Z,45.20
2017-06-14T04:49:08.529Z,45.00
2017-06-14T04:51:36.080Z,44.00
2017-06-14T04:54:03.677Z,42.80
2017-06-14T04:56:31.262Z,42.10
2017-06-14T04:58:58.837Z,42.10
2017-06-14T05:01:26.440Z,41.10
2017-06-14T05:03:54.004Z,41.10
2017-06-14T05:06:21.567Z,39.70
2017-06-14T05:08:49.177Z,37.40
2017-06-14T05:11:16.826Z,37.50
2017-06-14T05:13:45.206Z,36.40
2017-06-14T05:16:13.545Z,36.00
2017-06-14T05:18:41.129Z,35.90
2017-06-14T05:21:08.774Z,36.00
2017-06-14T05:23:36.338Z,35.00
2017-06-14T05:26:03.933Z,34.80
2017-06-14T05:28:31.507Z,32.90
2017-06-14T05:30:59.058Z,31.80
2017-06-14T05:33:26.653Z,31.90
2017-06-14T05:35:54.230Z,31.60
2017-06-14T05:38:21.791Z,31.10
2017-06-14T05:40:49.353Z,31.10
2017-06-14T05:43:16.917Z,30.00
2017-06-14T05:45:44.514Z,29.50
2017-06-14T05:48:12.867Z,29.30
2017-06-14T05:50:40.435Z,29.20
2017-06-14T05:53:08.023Z,29.10
2017-06-14T05:55:36.378Z,29.50
2017-06-14T05:58:03.942Z,29.40
2017-06-14T06:00:31.550Z,28.00
2017-06-14T06:02:59.134Z,28.40
2017-06-14T06:05:26.750Z,27.30
2017-06-14T06:07:55.282Z,25.70
2017-06-14T06:10:27.097Z,25.60
2017-06-14T06:12:54.714Z,26.20
2017-06-14T06:15:22.296Z,27.90
2017-06-14T06:17:50.624Z,26.90
2017-06-14T06:20:18.210Z,26.60
2017-06-14T06:22:45.761Z,26.20
2017-06-14T06:25:13.322Z,25.60
2017-06-14T06:27:40.902Z,26.10
2017-06-14T06:30:08.474Z,25.90
2017-06-14T06:32:36.054Z,24.70
2017-06-14T06:35:03.610Z,25.00
2017-06-14T06:37:31.936Z,24.40
2017-06-14T06:39:59.517Z,24.30
2017-06-14T06:42:27.181Z,24.10
2017-06-14T06:44:54.738Z,24.90
2017-06-14T06:47:22.333Z,24.60
2017-06-14T06:49:49.885Z,25.80
2017-06-14T06:52:18.253Z,25.60
2017-06-14T06:54:45.823Z,25.60
2017-06-14T06:57:13.391Z,25.40
2017-06-14T06:59:41.735Z,26.00
2017-06-14T07:02:09.297Z,26.00
2017-06-14T07:04:36.862Z,26.10
2017-06-14T07:07:04.462Z,25.30
2017-06-14T07:09:32.802Z,25.60
2017-06-14T07:12:00.354Z,25.50
2017-06-14T07:14:27.925Z,24.90
2017-06-14T07:16:55.495Z,27.10
2017-06-14T07:19:23.128Z,25.30
2017-06-14T07:21:50.701Z,25.20
2017-06-14T07:24:18.285Z,24.30
2017-06-14T07:26:45.834Z,24.70
2017-06-14T07:29:13.397Z,23.30
2017-06-14T07:31:40.961Z,25.60
2017-06-14T07:34:08.525Z,25.50
2017-06-14T07:36:36.103Z,23.20
2017-06-14T07:39:04.484Z,25.10
2017-06-14T07:41:32.817Z,23.00
2017-06-14T07:44:00.373Z,22.50
2017-06-14T07:46:27.952Z,23.30
2017-06-14T07:48:55.526Z,25.00
2017-06-14T07:51:23.099Z,24.80
2017-06-14T07:53:50.722Z,24.40
2017-06-14T07:56:18.282Z,25.00
2017-06-14T07:58:45.842Z,24.10
2017-06-14T08:01:13.410Z,24.00
2017-06-14T08:03:40.995Z,25.10
2017-06-14T08:06:08.558Z,23.50
2017-06-14T08:08:36.126Z,22.90
2017-06-14T08:11:03.717Z,23.40
2017-06-14T08:13:31.282Z,22.00
2017-06-14T08:15:58.854Z,23.30
2017-06-14T08:18:26.453Z,21.70
2017-06-14T08:20:54.038Z,23.30
2017-06-14T08:23:21.613Z,21.40
2017-06-14T08:25:49.938Z,20.90
2017-06-14T08:28:17.523Z,20.80
2017-06-14T08:30:45.093Z,21.50
2017-06-14T08:33:12.665Z,21.90
2017-06-14T08:35:40.254Z,21.90
2017-06-14T08:38:07.834Z,22.50
2017-06-14T08:40:35.414Z,21.70
2017-06-14T08:45:37.075Z,21.70
2017-06-14T08:48:04.646Z,19.80
2017-06-14T08:50:32.201Z,20.20
2017-06-14T08:52:59.790Z,22.20
2017-06-14T08:55:27.366Z,20.10
2017-06-14T08:57:54.938Z,20.10
2017-06-14T09:00:22.530Z,19.70
2017-06-14T09:02:50.095Z,21.40
2017-06-14T09:05:17.692Z,21.00
2017-06-14T09:07:45.351Z,19.00
2017-06-14T09:10:12.937Z,21.50
2017-06-14T09:12:40.510Z,19.80
2017-06-14T09:15:08.127Z,20.80
2017-06-14T09:17:35.746Z,21.00
2017-06-14T09:20:03.320Z,20.90
2017-06-14T09:22:30.971Z,21.00
2017-06-14T09:24:58.551Z,20.20
2017-06-14T09:27:26.123Z,23.00
2017-06-14T09:29:53.719Z,22.90
2017-06-14T09:32:22.038Z,23.60
2017-06-14T09:34:49.610Z,23.60
2017-06-14T09:37:17.255Z,21.40
2017-06-14T09:39:44.911Z,20.60
2017-06-14T09:42:12.510Z,21.60
2017-06-14T09:44:40.069Z,23.70
2017-06-14T09:47:07.641Z,20.90
2017-06-14T09:49:35.267Z,24.70
2017-06-14T09:52:02.806Z,24.20
2017-06-14T09:54:30.501Z,21.90
2017-06-14T09:56:58.066Z,21.60
2017-06-14T09:59:25.626Z,25.10
2017-06-14T10:01:53.229Z,23.60
2017-06-14T10:04:20.778Z,24.00
2017-06-14T10:06:48.349Z,23.40
2017-06-14T10:09:15.943Z,23.20
2017-06-14T10:11:43.515Z,24.80
2017-06-14T10:14:11.089Z,23.50
2017-06-14T10:16:38.678Z,23.60
2017-06-14T10:19:06.246Z,22.80
2017-06-14T10:21:33.818Z,23.20
2017-06-14T10:24:01.399Z,23.90
2017-06-14T10:26:28.998Z,24.00
2017-06-14T10:28:56.566Z,25.30
2017-06-14T10:31:24.158Z,23.50
2017-06-14T10:33:51.709Z,23.10
2017-06-14T10:36:19.262Z,23.00
2017-06-14T10:38:46.837Z,25.30
2017-06-14T10:41:14.423Z,23.60
2017-06-14T10:43:42.002Z,25.10
2017-06-14T10:46:09.587Z,25.10
2017-06-14T10:48:37.157Z,23.90
2017-06-14T10:51:04.765Z,25.90
2017-06-14T10:53:33.141Z,24.30
2017-06-14T10:56:01.471Z,23.30
2017-06-14T10:58:29.096Z,23.20
2017-06-14T11:00:56.686Z,24.90
2017-06-14T11:03:24.238Z,24.10
2017-06-14T11:05:51.808Z,22.90
2017-06-14T11:08:19.401Z,24.00
2017-06-14T11:10:46.975Z,25.00
2017-06-14T11:13:14.581Z,23.60
2017-06-14T11:15:42.194Z,24.30
2017-06-14T11:18:09.809Z,25.80
2017-06-14T11:20:37.369Z,24.00
2017-06-14T11:23:04.971Z,25.20
2017-06-14T11:25:32.523Z,24.80
2017-06-14T11:28:00.086Z,25.60
2017-06-14T11:30:27.673Z,26.90
2017-06-14T11:32:55.997Z,27.50
2017-06-14T11:35:23.574Z,27.50
2017-06-14T11:37:51.147Z,25.30
2017-06-14T11:40:18.760Z,27.10
2017-06-14T11:42:46.330Z,26.70
2017-06-14T11:45:13.885Z,27.60
2017-06-14T11:47:41.469Z,28.30
2017-06-14T11:50:09.038Z,26.80
2017-06-14T11:52:36.601Z,27.40
2017-06-14T11:55:04.230Z,28.90
2017-06-14T11:57:31.811Z,28.60
2017-06-14T11:59:59.390Z,27.40
2017-06-14T12:02:26.986Z,27.00
2017-06-14T12:04:54.609Z,28.30
2017-06-14T12:07:22.162Z,26.90
2017-06-14T12:09:49.702Z,28.50
2017-06-14T12:12:17.276Z,27.80
2017-06-14T12:14:44.857Z,30.00
2017-06-14T12:17:12.446Z,30.60
2017-06-14T12:19:40.834Z,29.20
2017-06-14T12:22:09.185Z,29.00
2017-06-14T12:24:36.744Z,28.90
2017-06-14T12:27:04.298Z,30.60
2017-06-14T12:29:31.898Z,32.60
2017-06-14T12:31:59.451Z,30.40
2017-06-14T12:34:27.788Z,29.70
2017-06-14T12:36:55.419Z,29.60
2017-06-14T12:39:22.976Z,31.50
2017-06-14T12:41:50.527Z,32.10
2017-06-14T12:44:18.105Z,30.20
2017-06-14T12:46:45.676Z,31.10
2017-06-14T12:49:13.261Z,30.00
2017-06-14T12:51:40.822Z,29.50
2017-06-14T12:54:08.442Z,29.20
2017-06-14T12:56:36.022Z,32.60
2017-06-14T12:59:03.612Z,29.90
2017-06-14T13:01:31.194Z,32.40
2017-06-14T13:03:58.785Z,31.50
2017-06-14T13:06:26.349Z,30.00
2017-06-14T13:08:53.907Z,28.90
2017-06-14T13:11:21.496Z,28.70
2017-06-14T13:13:49.061Z,30.80
2017-06-14T13:16:16.708Z,28.60
2017-06-14T13:18:44.280Z,28.20
2017-06-14T13:21:11.834Z,27.80
2017-06-14T13:23:39.422Z,30.00
2017-06-14T13:26:07.002Z,27.60
2017-06-14T13:28:34.571Z,28.20
2017-06-14T13:31:02.915Z,30.00
2017-06-14T13:33:30.494Z,30.00
2017-06-14T13:35:58.101Z,29.20
2017-06-14T13:38:25.689Z,28.50
2017-06-14T13:40:53.303Z,31.20
2017-06-14T13:43:20.898Z,29.60
2017-06-14T13:45:48.489Z,29.20
2017-06-14T13:48:16.050Z,31.20
2017-06-14T13:50:43.657Z,31.30
2017-06-14T13:53:11.211Z,32.50
2017-06-14T13:55:38.767Z,31.20
2017-06-14T13:58:07.272Z,33.10
2017-06-14T14:00:34.854Z,33.10
2017-06-14T14:03:02.442Z,34.30
2017-06-14T14:05:30.017Z,32.80
2017-06-14T14:07:57.638Z,32.10
2017-06-14T14:10:25.197Z,32.40
2017-06-14T14:12:52.764Z,31.80
2017-06-14T14:15:20.382Z,31.70
2017-06-14T14:17:48.708Z,34.00
2017-06-14T14:20:16.278Z,34.00
2017-06-14T14:22:43.868Z,34.50
2017-06-14T14:25:11.422Z,33.90
2017-06-14T14:27:38.963Z,34.90
2017-06-14T14:30:06.568Z,32.40
2017-06-14T14:32:34.961Z,34.00
2017-06-14T14:35:02.541Z,33.70
2017-06-14T14:37:30.077Z,32.50
2017-06-14T14:39:57.721Z,33.70
2017-06-14T14:42:26.071Z,35.00
2017-06-14T14:44:53.669Z,35.10
2017-06-14T14:47:21.272Z,33.50
2017-06-14T14:49:48.851Z,33.70
2017-06-14T14:52:16.418Z,34.20
2017-06-14T14:54:44.011Z,32.40
2017-06-14T14:57:11.605Z,32.80
2017-06-14T14:59:39.195Z,33.70
2017-06-14T15:02:06.851Z,33.90
2017-06-14T15:04:34.454Z,34.90
2017-06-14T15:07:02.019Z,34.50
2017-06-14T15:09:30.391Z,38.60
2017-06-14T15:11:57.936Z,38.50
2017-06-14T15:14:25.518Z,36.80
2017-06-14T15:16:53.940Z,36.30
2017-06-14T15:19:21.502Z,36.30
2017-06-14T15:21:49.090Z,37.20
2017-06-14T15:24:16.670Z,35.70
2017-06-14T15:26:44.241Z,35.20
2017-06-14T15:29:12.662Z,35.00
2017-06-14T15:31:40.230Z,35.00
2017-06-14T15:34:07.824Z,37.90
2017-06-14T15:36:35.427Z,36.40
2017-06-14T15:39:02.994Z,35.60
2017-06-14T15:41:30.625Z,36.60
2017-06-14T15:43:58.213Z,35.60
2017-06-14T15:46:25.773Z,35.40
2017-06-14T15:48:53.331Z,36.20
2017-06-14T15:51:20.944Z,37.10
2017-06-14T15:53:48.550Z,36.40
2017-06-14T15:56:17.798Z,37.20
2017-06-14T15:58:45.381Z,37.10
2017-06-14T16:01:12.953Z,36.40
2017-06-14T16:03:40.537Z,37.20
2017-06-14T16:06:08.151Z,37.00
2017-06-14T16:08:35.714Z,38.80
2017-06-14T16:11:03.301Z,38.50
2017-06-14T16:13:30.878Z,36.30
2017-06-14T16:15:58.443Z,37.10
2017-06-14T16:18:26.015Z,39.60
2017-06-14T16:20:53.586Z,37.30
2017-06-14T16:23:21.174Z,37.90
2017-06-14T16:25:48.757Z,38.40
2017-06-14T16:28:16.306Z,37.90
2017-06-14T16:30:43.903Z,38.00
2017-06-14T16:33:11.477Z,38.70
2017-06-14T16:35:39.062Z,39.10
2017-06-14T16:38:06.657Z,38.30
2017-06-14T16:40:34.215Z,39.60
2017-06-14T16:43:01.781Z,38.80
2017-06-14T16:45:29.354Z,38.30
2017-06-14T16:47:57.673Z,39.50
2017-06-14T16:50:25.286Z,39.50
2017-06-14T16:52:52.874Z,39.10
2017-06-14T16:55:20.433Z,39.10
2017-06-14T16:57:48.001Z,40.70
2017-06-14T17:00:15.594Z,40.00
2017-06-14T17:02:43.204Z,39.20
2017-06-14T17:05:10.786Z,39.50
2017-06-14T17:07:38.370Z,40.00
2017-06-14T17:10:05.981Z,42.50
2017-06-14T17:12:33.525Z,39.70
2017-06-14T17:15:01.110Z,40.00
2017-06-14T17:17:28.711Z,40.60
2017-06-14T17:19:56.275Z,40.60
2017-06-14T17:22:23.854Z,40.50
2017-06-14T17:24:51.439Z,40.50
2017-06-14T17:27:19.025Z,41.60
2017-06-14T17:29:46.623Z,40.90
2017-06-14T17:32:14.180Z,41.20
2017-06-14T17:34:41.741Z,40.70
2017-06-14T17:37:09.307Z,41.10
2017-06-14T17:39:36.875Z,41.30
2017-06-14T17:42:04.450Z,41.40
2017-06-14T17:44:32.093Z,41.20
2017-06-14T17:46:59.680Z,42.20
2017-06-14T17:49:27.241Z,42.20
2017-06-14T17:51:54.806Z,41.00
2017-06-14T17:54:22.397Z,41.80
2017-06-14T17:56:49.957Z,41.50
2017-06-14T17:59:17.555Z,42.40
2017-06-14T18:01:45.162Z,42.50
2017-06-14T18:04:12.726Z,42.90
2017-06-14T18:06:40.326Z,41.70
2017-06-14T18:09:07.942Z,42.70
2017-06-14T18:11:36.274Z,42.20
2017-06-14T18:14:03.830Z,42.10
2017-06-14T18:16:31.436Z,43.20
2017-06-14T18:18:58.997Z,41.90
2017-06-14T18:21:26.597Z,42.20
2017-06-14T18:23:54.158Z,42.30
2017-06-14T18:26:21.738Z,43.00
2017-06-14T18:28:49.323Z,42.40
2017-06-14T18:31:16.895Z,42.40
2017-06-14T18:33:44.519Z,42.90
2017-06-14T18:36:12.080Z,43.20
2017-06-14T18:38:39.653Z,43.40
2017-06-14T18:41:07.307Z,43.50
2017-06-14T18:43:34.908Z,43.70
2017-06-14T18:46:02.456Z,43.10
2017-06-14T18:48:30.087Z,43.60
2017-06-14T18:50:57.647Z,43.60
2017-06-14T18:53:25.248Z,43.80
2017-06-14T18:55:52.846Z,44.30
2017-06-14T18:58:21.182Z,44.40
2017-06-14T19:00:48.762Z,44.30
2017-06-14T19:03:17.142Z,45.20
2017-06-14T19:05:44.789Z,44.50
2017-06-14T19:08:12.379Z,44.80
2017-06-14T19:10:39.945Z,44.90
2017-06-14T19:13:07.543Z,45.00
2017-06-14T19:15:35.115Z,44.80
2017-06-14T19:18:02.698Z,44.90
2017-06-14T19:20:30.269Z,45.10
2017-06-14T19:22:57.831Z,45.60
2017-06-14T19:25:26.183Z,45.70
2017-06-14T19:27:53.811Z,45.70
2017-06-14T19:30:21.396Z,45.70
2017-06-14T19:32:49.897Z,47.20
2017-06-14T19:35:17.468Z,46.60
2017-06-14T19:37:45.050Z,46.20
2017-06-14T19:40:13.387Z,47.30
2017-06-14T19:42:40.979Z,47.20
2017-06-14T19:45:09.354Z,47.90
2017-06-14T19:47:36.982Z,47.80
2017-06-14T19:50:04.539Z,48.00
2017-06-14T19:52:32.146Z,48.30
2017-06-14T19:55:00.566Z,49.10
2017-06-14T19:57:28.169Z,49.10
2017-06-14T19:59:55.730Z,48.20
2017-06-14T20:02:23.362Z,49.00
2017-06-14T20:04:50.971Z,48.90
2017-06-14T20:07:19.298Z,48.90
2017-06-14T20:09:46.878Z,49.20
2017-06-14T20:12:14.486Z,49.50
2017-06-14T20:14:42.103Z,49.70
2017-06-14T20:17:09.768Z,49.70
2017-06-14T20:19:37.334Z,50.60
2017-06-14T20:22:04.986Z,51.40
2017-06-14T20:24:32.558Z,51.60
2017-06-14T20:27:00.130Z,52.80
2017-06-14T20:29:27.726Z,54.30
2017-06-14T20:31:55.295Z,54.60
2017-06-14T20:34:22.948Z,56.00
2017-06-14T20:36:50.531Z,54.60
2017-06-14T20:39:18.118Z,55.40
2017-06-14T20:41:45.793Z,54.20
2017-06-14T20:44:14.169Z,55.90
2017-06-14T20:46:41.722Z,55.90
2017-06-14T20:49:09.442Z,54.40
2017-06-14T20:51:37.017Z,54.40
2017-06-14T20:54:04.604Z,53.40
2017-06-14T20:56:32.224Z,54.60
2017-06-14T20:58:59.800Z,53.70
2017-06-14T21:01:27.454Z,54.20
2017-06-14T21:03:55.091Z,53.30
2017-06-14T21:06:23.455Z,53.60
2017-06-14T21:08:51.063Z,53.50
2017-06-14T21:11:18.674Z,53.90
2017-06-14T21:13:46.283Z,54.20
2017-06-14T21:16:13.870Z,54.20
2017-06-14T21:18:41.466Z,53.90
2017-06-14T21:21:09.061Z,53.90
2017-06-14T21:23:36.644Z,54.30
2017-06-14T21:26:04.216Z,53.70
2017-06-14T21:28:31.813Z,53.50
2017-06-14T21:30:59.375Z,53.50
2017-06-14T21:33:26.962Z,53.70
2017-06-14T21:35:54.569Z,53.60
2017-06-14T21:38:22.189Z,53.90
2017-06-14T21:40:49.799Z,54.70
2017-06-14T21:43:17.375Z,54.40
2017-06-14T21:45:45.051Z,54.20
2017-06-14T21:48:12.682Z,54.20
2017-06-14T21:50:40.277Z,54.20
2017-06-14T21:53:07.957Z,54.10
2017-06-14T21:55:35.515Z,54.40
2017-06-14T21:58:03.103Z,54.60
2017-06-14T22:00:30.674Z,55.20
2017-06-14T22:02:58.246Z,55.20
2017-06-14T22:05:25.861Z,55.40
2017-06-14T22:07:53.556Z,55.50
2017-06-14T22:10:21.150Z,55.70
2017-06-14T22:12:48.731Z,55.80
2017-06-14T22:15:16.300Z,56.10
2017-06-14T22:17:44.670Z,56.80
2017-06-14T22:20:13.030Z,56.90
2017-06-14T22:22:40.614Z,56.90
2017-06-14T22:25:08.978Z,57.20
2017-06-14T22:27:36.538Z,57.70
2017-06-14T22:30:04.093Z,57.30
2017-06-14T22:32:31.650Z,57.70
2017-06-14T22:34:59.237Z,57.50
2017-06-14T22:37:26.822Z,58.00
2017-06-14T22:39:54.415Z,58.70
2017-06-14T22:42:22.026Z,59.30
2017-06-14T22:44:50.403Z,60.70
2017-06-14T22:47:18.857Z,61.40
2017-06-14T22:49:46.432Z,60.40
2017-06-14T22:52:14.022Z,62.20
2017-06-14T22:54:41.575Z,62.00
2017-06-14T22:57:09.174Z,62.90
2017-06-14T22:59:36.767Z,63.10
2017-06-14T23:02:04.341Z,63.20
2017-06-14T23:04:31.927Z,64.20
2017-06-14T23:06:59.523Z,63.50
2017-06-14T23:09:27.185Z,64.00
2017-06-14T23:11:54.774Z,64.60
2017-06-14T23:14:22.343Z,64.60
2017-06-14T23:16:49.947Z,65.20
2017-06-14T23:19:17.510Z,66.00
2017-06-14T23:21:45.095Z,66.30
2017-06-14T23:24:12.782Z,66.80
2017-06-14T23:26:40.350Z,66.60
2017-06-14T23:29:08.011Z,66.40
2017-06-14T23:31:35.579Z,67.30
2017-06-14T23:34:03.935Z,67.70
2017-06-14T23:36:31.491Z,67.60
2017-06-14T23:38:59.079Z,67.00
2017-06-14T23:41:26.643Z,66.70
2017-06-14T23:43:55.062Z,68.10
2017-06-14T23:46:22.646Z,67.10
2017-06-14T23:48:50.230Z,67.40
2017-06-14T23:51:17.806Z,67.50
2017-06-14T23:53:46.154Z,68.20
2017-06-14T23:56:13.733Z,68.10
2017-06-14T23:58:41.345Z,68.80
